Monte — V2FS2 — position and weather

sailwx.info

Track history (hours):
 
Tides and Currents Weather Stations Pressure Air Temp Water Temp Dewpoint Dewpoint Depression Visibility Wind Speed Wind Dir Waves Ship Positions

Monte

Last reported at 2015-Jul-25 12:34 UTC. Time now 2015-Aug-02 00:15 UTC.
Position N 50°35' E 000°23'.

Length 104 m; draft 5.6 m.

Type: Cargo ship. MMSI: 305777000.

Date/timePositionNaut miles runAvg speedWind from/ knotsBaromVisibWave heightAir tempDewpointWater temp
2015-Jul-25 12:34N 50°35' E 000°23'10 9.6
2015-Jul-25 11:33N 50°38' E 000°37'1010.5
2015-Jul-25 10:34N 50°44' E 000°51'1210.5
2015-Jul-25 09:23N 50°52' E 001°06'810.1
2015-Jul-25 08:33N 50°58' E 001°16'9 9.3
2015-Jul-25 07:34N 51°04' E 001°27'8 8.1
2015-Jul-25 06:34N 51°09' E 001°36'7 7.1
2015-Jul-25 05:34N 51°14' E 001°45'8 7.7
2015-Jul-25 04:33N 51°20' E 001°52'9 8.6
2015-Jul-25 03:34N 51°27' E 002°00'3210.5
2015-Jul-25 00:33N 51°51' E 002°34'38 9.4
2015-Jul-24 20:33N 52°03' E 003°32'9 9.3
2015-Jul-24 19:34N 52°03' E 003°47'9 9.0
2015-Jul-24 18:33N 52°00' E 004°01'1010.2
2015-Jul-24 17:34N 51°55' E 004°15'4 3.7
2015-Jul-24 16:29N 51°54' E 004°21'0 0.0
2015-Jul-24 15:29N 51°54' E 004°21'0 0.0
2015-Jul-24 14:26N 51°54' E 004°21'0 0.0
2015-Jul-24 13:32N 51°54' E 004°21'0 0.0
2015-Jul-24 12:32N 51°54' E 004°21'0 0.0
2015-Jul-24 11:32N 51°54' E 004°21'0 0.0
2015-Jul-24 10:32N 51°54' E 004°21'0 0.0
2015-Jul-24 09:32N 51°54' E 004°21'0 0.0
2015-Jul-24 08:32N 51°54' E 004°21'0 0.0
2015-Jul-24 07:32N 51°54' E 004°21'0 0.0
2015-Jul-24 06:32N 51°54' E 004°21'0 0.0
2015-Jul-24 05:32N 51°54' E 004°21'0 0.0
2015-Jul-24 04:32N 51°54' E 004°21'0 0.0
2015-Jul-24 03:32N 51°54' E 004°21'0 0.0
2015-Jul-24 02:32N 51°54' E 004°21'0 0.0
2015-Jul-24 01:28N 51°54' E 004°21'0 0.0
2015-Jul-24 00:31N 51°54' E 004°21'0 0.0
2015-Jul-23 23:31N 51°54' E 004°21'0 0.0
2015-Jul-23 22:31N 51°54' E 004°21'0 0.0
2015-Jul-23 21:31N 51°54' E 004°21'0 0.0
2015-Jul-23 20:31N 51°54' E 004°21'0 0.0
2015-Jul-23 19:31N 51°54' E 004°21'0 0.0
2015-Jul-23 18:31N 51°54' E 004°21'1 0.8
2015-Jul-23 17:33N 51°54' E 004°20'9 9.4
2015-Jul-23 16:33N 51°58' E 004°07'10 9.7
2015-Jul-23 15:33N 51°60' E 003°52'20 8.9
2015-Jul-23 13:17N 51°52' E 003°21'6 0.6
2015-Jul-23 03:05N 51°47' E 003°19'0 0.0
2015-Jul-21 17:28N 51°47' E 003°19'0 0.0
2015-Jul-21 16:31N 51°47' E 003°19'0 0.0
2015-Jul-21 15:31N 51°47' E 003°19'0 0.0
2015-Jul-21 14:34N 51°47' E 003°19'0 0.1
2015-Jul-21 13:33N 51°47' E 003°19'0 0.0
2015-Jul-21 12:30N 51°47' E 003°19'0 0.1
2015-Jul-21 09:18N 51°47' E 003°19'0 0.0
2015-Jul-20 11:15N 51°47' E 003°19'0 0.0
2015-Jul-20 06:30N 51°47' E 003°19'0 0.0
2015-Jul-20 02:33N 51°47' E 003°19'0 0.0
2015-Jul-19 00:32N 51°47' E 003°19'0 0.0
2015-Jul-18 22:11N 51°47' E 003°19'0 0.0
2015-Jul-18 21:26N 51°47' E 003°19'0 0.0
2015-Jul-18 20:26N 51°47' E 003°19'0 0.1
2015-Jul-18 19:32N 51°47' E 003°19'0 0.1
2015-Jul-18 18:32N 51°47' E 003°19'0 0.0
2015-Jul-18 15:14N 51°47' E 003°19'10 3.6
2015-Jul-18 12:33N 51°37' E 003°22'9 8.7
2015-Jul-18 11:33N 51°30' E 003°29'8 8.1
2015-Jul-18 10:33N 51°25' E 003°39'8 7.0
2015-Jul-18 09:24N 51°20' E 003°49'4 4.8
2015-Jul-18 08:33N 51°16' E 003°50'2 1.9
2015-Jul-18 07:33N 51°14' E 003°48'0 0.0
2015-Jul-18 06:30N 51°14' E 003°48'0 0.0
2015-Jul-18 05:27N 51°14' E 003°48'0 0.0
2015-Jul-18 04:33N 51°14' E 003°48'0 0.0
2015-Jul-18 03:27N 51°14' E 003°48'0 0.0
2015-Jul-18 02:33N 51°14' E 003°48'0 0.0
2015-Jul-18 01:27N 51°14' E 003°48'0 0.0
2015-Jul-18 00:32N 51°14' E 003°48'0 0.0
2015-Jul-17 23:32N 51°14' E 003°48'0 0.0
2015-Jul-17 22:33N 51°14' E 003°48'0 0.1
2015-Jul-17 21:33N 51°14' E 003°48'0 0.0
2015-Jul-17 20:32N 51°14' E 003°48'0 0.0
2015-Jul-17 19:32N 51°14' E 003°48'0 0.0
2015-Jul-17 18:33N 51°14' E 003°48'0 0.0
2015-Jul-17 17:32N 51°14' E 003°48'0 0.0
2015-Jul-17 16:29N 51°14' E 003°48'0 0.0
2015-Jul-17 15:32N 51°14' E 003°48'0 0.0
2015-Jul-17 14:32N 51°14' E 003°48'0 0.0
2015-Jul-17 13:29N 51°14' E 003°48'0 0.0
2015-Jul-17 12:29N 51°14' E 003°48'0 0.0
2015-Jul-17 11:32N 51°14' E 003°48'0 0.0
2015-Jul-17 10:32N 51°14' E 003°48'0 0.0
2015-Jul-17 09:17N 51°14' E 003°48'0 0.0
2015-Jul-17 08:20N 51°14' E 003°48'0 0.0
2015-Jul-17 07:32N 51°14' E 003°48'0 0.0
2015-Jul-17 06:32N 51°14' E 003°48'0 0.0
2015-Jul-17 05:32N 51°14' E 003°48'0 0.0
2015-Jul-17 04:29N 51°14' E 003°48'0 0.0
2015-Jul-17 03:32N 51°14' E 003°48'0 0.0
2015-Jul-17 02:32N 51°14' E 003°48'0 0.0
2015-Jul-17 01:32N 51°14' E 003°48'0 0.0
2015-Jul-17 00:32N 51°14' E 003°48'0 0.0
2015-Jul-16 23:32N 51°14' E 003°48'0 0.0
2015-Jul-16 22:32N 51°14' E 003°48'0 0.0
2015-Jul-16 21:32N 51°14' E 003°48'0 0.0
2015-Jul-16 20:29N 51°14' E 003°48'0 0.0
2015-Jul-16 19:32N 51°14' E 003°48'0 0.0
2015-Jul-16 18:29N 51°14' E 003°48'0 0.0
2015-Jul-16 17:32N 51°14' E 003°48'0 0.0
2015-Jul-16 16:32N 51°14' E 003°48'0 0.0
2015-Jul-16 15:23N 51°14' E 003°48'0 0.0
2015-Jul-16 14:26N 51°14' E 003°48'0 0.0
2015-Jul-16 13:24N 51°14' E 003°48'0 0.1
2015-Jul-16 12:32N 51°14' E 003°48'0 0.0
2015-Jul-16 11:25N 51°14' E 003°48'0 0.0
2015-Jul-16 10:31N 51°14' E 003°48'0 0.0
2015-Jul-16 09:31N 51°14' E 003°48'0 0.0
2015-Jul-16 08:31N 51°14' E 003°48'0 0.0
2015-Jul-16 07:31N 51°14' E 003°48'0 0.0
2015-Jul-16 06:28N 51°14' E 003°48'0 0.0
2015-Jul-16 05:25N 51°14' E 003°48'0 0.0
2015-Jul-16 04:31N 51°14' E 003°48'0 0.0
2015-Jul-16 03:31N 51°14' E 003°48'0 0.0
2015-Jul-16 02:31N 51°14' E 003°48'0 0.0
2015-Jul-16 01:25N 51°14' E 003°48'0 0.0
2015-Jul-16 00:31N 51°14' E 003°48'0 0.0
2015-Jul-15 23:31N 51°14' E 003°48'0 0.0
2015-Jul-15 22:31N 51°14' E 003°48'0 0.0
2015-Jul-15 21:31N 51°14' E 003°48'0 0.0
2015-Jul-15 20:31N 51°14' E 003°48'0 0.1
2015-Jul-15 19:25N 51°14' E 003°48'0 0.0
2015-Jul-15 18:28N 51°14' E 003°48'0 0.0
2015-Jul-15 17:31N 51°14' E 003°48'0 0.0
2015-Jul-15 16:31N 51°14' E 003°48'0 0.0
2015-Jul-15 15:31N 51°14' E 003°48'0 0.0
2015-Jul-15 14:31N 51°14' E 003°48'0 0.0
2015-Jul-15 13:31N 51°14' E 003°48'  
Track history (hours):
 
Tides and Currents Weather Stations Pressure Air Temp Water Temp Dewpoint Dewpoint Depression Visibility Wind Speed Wind Dir Waves Ship Positions

Monte

Last reported at 2015-Jul-25 12:34 UTC. Time now 2015-Aug-02 00:15 UTC.
Position N 50°35' E 000°23'.

Length 104 m; draft 5.6 m.

Type: Cargo ship. MMSI: 305777000.

Date/timePositionNaut miles runAvg speedWind from/ knotsBaromVisibWave heightAir tempDewpointWater temp
2015-Jul-25 12:34N 50°35' E 000°23'10 9.6
2015-Jul-25 11:33N 50°38' E 000°37'1010.5
2015-Jul-25 10:34N 50°44' E 000°51'1210.5
2015-Jul-25 09:23N 50°52' E 001°06'810.1
2015-Jul-25 08:33N 50°58' E 001°16'9 9.3
2015-Jul-25 07:34N 51°04' E 001°27'8 8.1
2015-Jul-25 06:34N 51°09' E 001°36'7 7.1
2015-Jul-25 05:34N 51°14' E 001°45'8 7.7
2015-Jul-25 04:33N 51°20' E 001°52'9 8.6
2015-Jul-25 03:34N 51°27' E 002°00'3210.5
2015-Jul-25 00:33N 51°51' E 002°34'38 9.4
2015-Jul-24 20:33N 52°03' E 003°32'9 9.3
2015-Jul-24 19:34N 52°03' E 003°47'9 9.0
2015-Jul-24 18:33N 52°00' E 004°01'1010.2
2015-Jul-24 17:34N 51°55' E 004°15'4 3.7
2015-Jul-24 16:29N 51°54' E 004°21'0 0.0
2015-Jul-24 15:29N 51°54' E 004°21'0 0.0
2015-Jul-24 14:26N 51°54' E 004°21'0 0.0
2015-Jul-24 13:32N 51°54' E 004°21'0 0.0
2015-Jul-24 12:32N 51°54' E 004°21'0 0.0
2015-Jul-24 11:32N 51°54' E 004°21'0 0.0
2015-Jul-24 10:32N 51°54' E 004°21'0 0.0
2015-Jul-24 09:32N 51°54' E 004°21'0 0.0
2015-Jul-24 08:32N 51°54' E 004°21'0 0.0
2015-Jul-24 07:32N 51°54' E 004°21'0 0.0
2015-Jul-24 06:32N 51°54' E 004°21'0 0.0
2015-Jul-24 05:32N 51°54' E 004°21'0 0.0
2015-Jul-24 04:32N 51°54' E 004°21'0 0.0
2015-Jul-24 03:32N 51°54' E 004°21'0 0.0
2015-Jul-24 02:32N 51°54' E 004°21'0 0.0
2015-Jul-24 01:28N 51°54' E 004°21'0 0.0
2015-Jul-24 00:31N 51°54' E 004°21'0 0.0
2015-Jul-23 23:31N 51°54' E 004°21'0 0.0
2015-Jul-23 22:31N 51°54' E 004°21'0 0.0
2015-Jul-23 21:31N 51°54' E 004°21'0 0.0
2015-Jul-23 20:31N 51°54' E 004°21'0 0.0
2015-Jul-23 19:31N 51°54' E 004°21'0 0.0
2015-Jul-23 18:31N 51°54' E 004°21'1 0.8
2015-Jul-23 17:33N 51°54' E 004°20'9 9.4
2015-Jul-23 16:33N 51°58' E 004°07'10 9.7
2015-Jul-23 15:33N 51°60' E 003°52'20 8.9
2015-Jul-23 13:17N 51°52' E 003°21'6 0.6
2015-Jul-23 03:05N 51°47' E 003°19'0 0.0
2015-Jul-21 17:28N 51°47' E 003°19'0 0.0
2015-Jul-21 16:31N 51°47' E 003°19'0 0.0
2015-Jul-21 15:31N 51°47' E 003°19'0 0.0
2015-Jul-21 14:34N 51°47' E 003°19'0 0.1
2015-Jul-21 13:33N 51°47' E 003°19'0 0.0
2015-Jul-21 12:30N 51°47' E 003°19'0 0.1
2015-Jul-21 09:18N 51°47' E 003°19'0 0.0
2015-Jul-20 11:15N 51°47' E 003°19'0 0.0
2015-Jul-20 06:30N 51°47' E 003°19'0 0.0
2015-Jul-20 02:33N 51°47' E 003°19'0 0.0
2015-Jul-19 00:32N 51°47' E 003°19'0 0.0
2015-Jul-18 22:11N 51°47' E 003°19'0 0.0
2015-Jul-18 21:26N 51°47' E 003°19'0 0.0
2015-Jul-18 20:26N 51°47' E 003°19'0 0.1
2015-Jul-18 19:32N 51°47' E 003°19'0 0.1
2015-Jul-18 18:32N 51°47' E 003°19'0 0.0
2015-Jul-18 15:14N 51°47' E 003°19'10 3.6
2015-Jul-18 12:33N 51°37' E 003°22'9 8.7
2015-Jul-18 11:33N 51°30' E 003°29'8 8.1
2015-Jul-18 10:33N 51°25' E 003°39'8 7.0
2015-Jul-18 09:24N 51°20' E 003°49'4 4.8
2015-Jul-18 08:33N 51°16' E 003°50'2 1.9
2015-Jul-18 07:33N 51°14' E 003°48'0 0.0
2015-Jul-18 06:30N 51°14' E 003°48'0 0.0
2015-Jul-18 05:27N 51°14' E 003°48'0 0.0
2015-Jul-18 04:33N 51°14' E 003°48'0 0.0
2015-Jul-18 03:27N 51°14' E 003°48'0 0.0
2015-Jul-18 02:33N 51°14' E 003°48'0 0.0
2015-Jul-18 01:27N 51°14' E 003°48'0 0.0
2015-Jul-18 00:32N 51°14' E 003°48'0 0.0
2015-Jul-17 23:32N 51°14' E 003°48'0 0.0
2015-Jul-17 22:33N 51°14' E 003°48'0 0.1
2015-Jul-17 21:33N 51°14' E 003°48'0 0.0
2015-Jul-17 20:32N 51°14' E 003°48'0 0.0
2015-Jul-17 19:32N 51°14' E 003°48'0 0.0
2015-Jul-17 18:33N 51°14' E 003°48'0 0.0
2015-Jul-17 17:32N 51°14' E 003°48'0 0.0
2015-Jul-17 16:29N 51°14' E 003°48'0 0.0
2015-Jul-17 15:32N 51°14' E 003°48'0 0.0
2015-Jul-17 14:32N 51°14' E 003°48'0 0.0
2015-Jul-17 13:29N 51°14' E 003°48'0 0.0
2015-Jul-17 12:29N 51°14' E 003°48'0 0.0
2015-Jul-17 11:32N 51°14' E 003°48'0 0.0
2015-Jul-17 10:32N 51°14' E 003°48'0 0.0
2015-Jul-17 09:17N 51°14' E 003°48'0 0.0
2015-Jul-17 08:20N 51°14' E 003°48'0 0.0
2015-Jul-17 07:32N 51°14' E 003°48'0 0.0
2015-Jul-17 06:32N 51°14' E 003°48'0 0.0
2015-Jul-17 05:32N 51°14' E 003°48'0 0.0
2015-Jul-17 04:29N 51°14' E 003°48'0 0.0
2015-Jul-17 03:32N 51°14' E 003°48'0 0.0
2015-Jul-17 02:32N 51°14' E 003°48'0 0.0
2015-Jul-17 01:32N 51°14' E 003°48'0 0.0
2015-Jul-17 00:32N 51°14' E 003°48'0 0.0
2015-Jul-16 23:32N 51°14' E 003°48'0 0.0
2015-Jul-16 22:32N 51°14' E 003°48'0 0.0
2015-Jul-16 21:32N 51°14' E 003°48'0 0.0
2015-Jul-16 20:29N 51°14' E 003°48'0 0.0
2015-Jul-16 19:32N 51°14' E 003°48'0 0.0
2015-Jul-16 18:29N 51°14' E 003°48'0 0.0
2015-Jul-16 17:32N 51°14' E 003°48'0 0.0
2015-Jul-16 16:32N 51°14' E 003°48'0 0.0
2015-Jul-16 15:23N 51°14' E 003°48'0 0.0
2015-Jul-16 14:26N 51°14' E 003°48'0 0.0
2015-Jul-16 13:24N 51°14' E 003°48'0 0.1
2015-Jul-16 12:32N 51°14' E 003°48'0 0.0
2015-Jul-16 11:25N 51°14' E 003°48'0 0.0
2015-Jul-16 10:31N 51°14' E 003°48'0 0.0
2015-Jul-16 09:31N 51°14' E 003°48'0 0.0
2015-Jul-16 08:31N 51°14' E 003°48'0 0.0
2015-Jul-16 07:31N 51°14' E 003°48'0 0.0
2015-Jul-16 06:28N 51°14' E 003°48'0 0.0
2015-Jul-16 05:25N 51°14' E 003°48'0 0.0
2015-Jul-16 04:31N 51°14' E 003°48'0 0.0
2015-Jul-16 03:31N 51°14' E 003°48'0 0.0
2015-Jul-16 02:31N 51°14' E 003°48'0 0.0
2015-Jul-16 01:25N 51°14' E 003°48'0 0.0
2015-Jul-16 00:31N 51°14' E 003°48'0 0.0
2015-Jul-15 23:31N 51°14' E 003°48'0 0.0
2015-Jul-15 22:31N 51°14' E 003°48'0 0.0
2015-Jul-15 21:31N 51°14' E 003°48'0 0.0
2015-Jul-15 20:31N 51°14' E 003°48'0 0.1
2015-Jul-15 19:25N 51°14' E 003°48'0 0.0
2015-Jul-15 18:28N 51°14' E 003°48'0 0.0
2015-Jul-15 17:31N 51°14' E 003°48'0 0.0
2015-Jul-15 16:31N 51°14' E 003°48'0 0.0
2015-Jul-15 15:31N 51°14' E 003°48'0 0.0
2015-Jul-15 14:31N 51°14' E 003°48'0 0.0
2015-Jul-15 13:31N 51°14' E 003°48'  

Dump ship's entire track history